createdAt,value
2022-10-18T00:00:19.442Z,48.69
2022-10-18T00:02:46.410Z,47.30
2022-10-18T00:05:13.664Z,47.96
2022-10-18T00:07:41.156Z,48.38
2022-10-18T00:10:07.764Z,47.98
2022-10-18T00:12:39.692Z,46.61
2022-10-18T00:15:07.036Z,45.51
2022-10-18T00:17:34.152Z,45.04
2022-10-18T00:20:04.731Z,45.24
2022-10-18T00:22:39.014Z,45.28
2022-10-18T00:25:07.801Z,45.69
2022-10-18T00:27:34.799Z,45.49
2022-10-18T00:30:08.349Z,44.51
2022-10-18T00:32:35.519Z,44.62
2022-10-18T00:35:04.616Z,45.58
2022-10-18T00:37:31.745Z,45.94
2022-10-18T00:39:59.597Z,45.83
2022-10-18T00:42:26.825Z,45.63
2022-10-18T00:44:57.491Z,46.46
2022-10-18T00:47:26.574Z,48.24
2022-10-18T00:49:53.383Z,47.48
2022-10-18T00:52:20.512Z,47.56
2022-10-18T00:54:48.047Z,48.32
2022-10-18T00:57:15.338Z,50.02
2022-10-18T00:59:43.122Z,50.83
2022-10-18T01:02:10.315Z,50.57
2022-10-18T01:04:43.556Z,50.49
2022-10-18T01:07:12.090Z,50.76
2022-10-18T01:09:38.925Z,51.35
2022-10-18T01:12:06.173Z,50.58
2022-10-18T01:14:34.364Z,52.50
2022-10-18T01:17:02.180Z,52.37
2022-10-18T01:19:32.447Z,51.50
2022-10-18T01:22:00.011Z,50.74
2022-10-18T01:24:29.239Z,50.58
2022-10-18T01:26:56.198Z,50.56
2022-10-18T01:29:26.215Z,50.90
2022-10-18T01:31:55.299Z,51.96
2022-10-18T01:34:24.172Z,51.07
2022-10-18T01:36:51.966Z,50.22
2022-10-18T01:39:19.205Z,50.18
2022-10-18T01:41:54.569Z,50.19
2022-10-18T01:44:21.620Z,51.05
2022-10-18T01:46:52.357Z,49.98
2022-10-18T01:49:19.491Z,50.38
2022-10-18T01:51:46.822Z,50.76
2022-10-18T01:54:14.031Z,50.23
2022-10-18T01:56:42.775Z,49.70
2022-10-18T01:59:11.964Z,49.86
2022-10-18T02:01:40.092Z,49.98
2022-10-18T02:04:07.181Z,52.26
2022-10-18T02:06:38.354Z,51.71
2022-10-18T02:09:08.356Z,51.87
2022-10-18T02:11:35.731Z,52.03
2022-10-18T02:14:03.826Z,53.17
2022-10-18T02:16:32.796Z,54.17
2022-10-18T02:19:01.921Z,53.32
2022-10-18T02:21:35.155Z,52.94
2022-10-18T02:24:01.776Z,52.55
2022-10-18T02:26:40.348Z,52.92
2022-10-18T02:29:11.446Z,52.45
2022-10-18T02:31:47.707Z,52.46
2022-10-18T02:34:16.982Z,52.67
2022-10-18T02:36:44.694Z,52.78
2022-10-18T02:39:11.617Z,52.18
2022-10-18T02:41:39.526Z,53.19
2022-10-18T02:44:07.956Z,54.80
2022-10-18T02:46:38.077Z,54.79
2022-10-18T02:49:06.537Z,56.32
2022-10-18T02:51:35.222Z,55.51
2022-10-18T02:56:33.364Z,54.16
2022-10-18T02:59:01.889Z,53.99
2022-10-18T03:01:30.088Z,57.49
2022-10-18T03:03:57.550Z,58.75
2022-10-18T03:06:24.279Z,59.30
2022-10-18T03:08:51.503Z,60.94
2022-10-18T03:11:18.255Z,61.29
2022-10-18T03:13:47.301Z,59.56
2022-10-18T03:16:14.810Z,59.40
2022-10-18T03:18:42.846Z,59.93
2022-10-18T03:21:12.217Z,60.35
2022-10-18T03:23:46.121Z,59.90
2022-10-18T03:26:15.991Z,59.47
2022-10-18T03:28:45.822Z,60.08
2022-10-18T03:31:17.611Z,58.24
2022-10-18T03:33:55.176Z,57.74
2022-10-18T03:36:22.050Z,59.36
2022-10-18T03:38:50.816Z,59.40
2022-10-18T03:41:23.550Z,60.91
2022-10-18T03:43:54.562Z,60.48
2022-10-18T03:46:26.323Z,60.15
2022-10-18T03:48:53.806Z,59.36
2022-10-18T03:51:20.538Z,59.39
2022-10-18T03:53:47.733Z,59.54
2022-10-18T03:56:27.917Z,58.49
2022-10-18T03:58:57.481Z,58.20
2022-10-18T04:01:26.729Z,58.79
2022-10-18T04:04:03.338Z,57.75
2022-10-18T04:06:31.340Z,57.33
2022-10-18T04:09:00.346Z,58.27
2022-10-18T04:11:27.119Z,57.02
2022-10-18T04:13:54.266Z,56.26
2022-10-18T04:16:24.293Z,56.34
2022-10-18T04:18:51.067Z,56.17
2022-10-18T04:21:18.188Z,55.19
2022-10-18T04:23:45.625Z,56.20
2022-10-18T04:26:13.063Z,54.96
2022-10-18T04:28:46.397Z,55.58
2022-10-18T04:31:15.544Z,56.18
2022-10-18T04:33:45.842Z,55.94
2022-10-18T04:36:21.535Z,56.13
2022-10-18T04:38:49.617Z,56.51
2022-10-18T04:41:16.467Z,57.56
2022-10-18T04:43:43.473Z,56.51
2022-10-18T04:46:11.558Z,57.33
2022-10-18T04:48:40.616Z,57.85
2022-10-18T04:51:08.506Z,57.66
2022-10-18T04:53:38.217Z,56.66
2022-10-18T04:56:11.122Z,56.22
2022-10-18T04:58:37.845Z,54.73
2022-10-18T05:01:10.806Z,53.99
2022-10-18T05:06:24.031Z,52.67
2022-10-18T05:17:33.595Z,53.29
2022-10-18T05:20:15.939Z,53.48
2022-10-18T05:25:38.666Z,51.21
2022-10-18T05:28:10.986Z,50.46
2022-10-18T05:37:27.492Z,50.99
2022-10-18T05:39:57.390Z,52.97
2022-10-18T05:42:50.672Z,53.68
2022-10-18T05:45:26.491Z,53.03
2022-10-18T05:47:53.998Z,51.65
2022-10-18T05:50:21.250Z,50.63
2022-10-18T06:21:57.292Z,49.77
2022-10-18T06:24:28.070Z,49.38
2022-10-18T06:26:54.955Z,48.77
2022-10-18T06:29:24.151Z,49.40
2022-10-18T06:31:51.523Z,48.89
2022-10-18T06:40:10.222Z,49.84
2022-10-18T06:42:39.781Z,49.77
2022-10-18T06:45:07.927Z,49.20
2022-10-18T06:47:34.585Z,49.66
2022-10-18T06:50:04.235Z,49.36
2022-10-18T06:52:32.015Z,49.58
2022-10-18T06:55:04.120Z,50.44
2022-10-18T06:57:33.215Z,50.64
2022-10-18T07:00:02.863Z,51.68
2022-10-18T07:02:30.292Z,51.82
2022-10-18T07:05:05.188Z,52.89
2022-10-18T07:07:35.749Z,52.23
2022-10-18T07:10:03.181Z,52.23
2022-10-18T07:12:35.829Z,52.29
2022-10-18T07:15:08.346Z,51.86
2022-10-18T07:17:43.384Z,50.98
2022-10-18T07:20:28.218Z,50.84
2022-10-18T07:23:00.154Z,50.92
2022-10-18T07:25:56.034Z,53.81
2022-10-18T07:28:23.903Z,53.45
2022-10-18T07:31:06.944Z,51.88
2022-10-18T07:33:46.374Z,50.57
2022-10-18T07:42:11.382Z,50.21
2022-10-18T07:44:48.590Z,50.75
2022-10-18T07:47:17.843Z,50.00
2022-10-18T07:55:47.094Z,49.43
2022-10-18T07:58:15.872Z,49.68
2022-10-18T08:00:46.642Z,49.87
2022-10-18T08:03:15.066Z,48.92
2022-10-18T08:05:43.681Z,49.11
2022-10-18T08:08:14.643Z,48.38
2022-10-18T08:10:43.869Z,48.96
2022-10-18T08:13:11.175Z,49.92
2022-10-18T08:15:40.819Z,48.68
2022-10-18T08:18:15.307Z,48.03
2022-10-18T08:20:57.090Z,47.70
2022-10-18T08:23:29.511Z,47.31
2022-10-18T08:25:57.706Z,49.10
2022-10-18T08:28:25.184Z,47.79
2022-10-18T08:30:56.429Z,47.51
2022-10-18T08:36:10.058Z,48.30
2022-10-18T08:38:39.826Z,47.53
2022-10-18T08:44:21.565Z,49.74
2022-10-18T08:50:09.066Z,49.94
2022-10-18T08:52:43.435Z,49.62
2022-10-18T08:55:12.184Z,48.70
2022-10-18T08:57:46.428Z,49.17
2022-10-18T09:02:55.145Z,48.44
2022-10-18T09:05:22.524Z,47.74
2022-10-18T09:07:58.068Z,47.67
2022-10-18T09:10:24.912Z,47.53
2022-10-18T09:12:57.678Z,47.91
2022-10-18T09:15:26.457Z,46.46
2022-10-18T09:18:02.226Z,47.39
2022-10-18T09:20:31.418Z,46.67
2022-10-18T09:23:03.126Z,47.06
2022-10-18T09:25:30.491Z,48.56
2022-10-18T09:27:57.689Z,47.34
2022-10-18T09:30:24.529Z,46.44
2022-10-18T09:32:51.706Z,46.94
2022-10-18T09:35:21.981Z,46.56
2022-10-18T09:37:50.703Z,47.04
2022-10-18T09:40:19.480Z,45.66
2022-10-18T09:42:46.722Z,45.04
2022-10-18T09:45:15.493Z,45.22
2022-10-18T09:47:46.105Z,45.64
2022-10-18T09:50:14.724Z,45.15
2022-10-18T09:52:45.098Z,45.45
2022-10-18T09:55:21.870Z,45.26
2022-10-18T09:57:57.455Z,45.67
2022-10-18T10:00:28.313Z,46.62
2022-10-18T10:02:57.578Z,46.08
2022-10-18T10:05:26.368Z,45.82
2022-10-18T10:07:55.913Z,45.47
2022-10-18T10:10:23.101Z,45.77
2022-10-18T10:15:38.242Z,46.15
2022-10-18T10:18:10.765Z,45.50
2022-10-18T10:20:51.027Z,45.61
2022-10-18T10:23:23.496Z,45.60
2022-10-18T10:25:59.412Z,43.92
2022-10-18T10:34:37.300Z,43.41
2022-10-18T10:43:36.991Z,42.92
2022-10-18T10:46:17.881Z,42.63
2022-10-18T10:48:50.159Z,42.34
2022-10-18T10:51:18.126Z,41.79
2022-10-18T10:53:45.826Z,42.23
2022-10-18T10:56:17.732Z,42.71
2022-10-18T10:58:48.866Z,42.50
2022-10-18T11:01:17.977Z,42.16
2022-10-18T11:03:49.294Z,41.30
2022-10-18T11:06:18.759Z,41.45
2022-10-18T11:08:54.546Z,40.02
2022-10-18T11:11:36.053Z,40.21
2022-10-18T11:14:24.658Z,40.13
2022-10-18T11:16:52.640Z,39.93
2022-10-18T11:19:28.517Z,40.42
2022-10-18T11:22:02.353Z,39.97
2022-10-18T11:24:33.966Z,39.92
2022-10-18T11:27:01.647Z,40.66
2022-10-18T11:29:49.752Z,41.49
2022-10-18T11:32:19.480Z,39.90
2022-10-18T11:37:46.399Z,38.98
2022-10-18T11:46:08.064Z,38.26
2022-10-18T11:48:44.394Z,38.75
2022-10-18T11:51:12.299Z,38.57
2022-10-18T11:53:48.277Z,38.92
2022-10-18T11:56:18.124Z,38.82
2022-10-18T11:58:45.504Z,38.57
2022-10-18T12:01:12.575Z,37.83
2022-10-18T12:03:51.743Z,38.88
2022-10-18T12:06:27.688Z,38.83
2022-10-18T12:08:55.213Z,37.46
2022-10-18T12:11:23.485Z,38.00
2022-10-18T12:13:52.059Z,38.53
2022-10-18T12:16:39.025Z,37.70
2022-10-18T12:19:10.717Z,37.67
2022-10-18T12:21:38.928Z,37.72
2022-10-18T12:24:07.362Z,37.22
2022-10-18T12:26:37.401Z,36.95
2022-10-18T12:29:04.765Z,36.72
2022-10-18T12:31:31.630Z,37.00
2022-10-18T12:33:59.433Z,36.66
2022-10-18T12:36:26.598Z,37.48
2022-10-18T12:38:57.928Z,36.88
2022-10-18T12:41:32.572Z,36.53
2022-10-18T12:44:04.938Z,37.02
2022-10-18T12:49:00.688Z,37.83
2022-10-18T12:51:27.579Z,37.48
2022-10-18T12:53:54.758Z,36.87
2022-10-18T12:56:25.264Z,37.50
2022-10-18T12:58:57.022Z,36.72
2022-10-18T13:01:24.582Z,35.86
2022-10-18T13:03:57.963Z,37.10
2022-10-18T13:06:25.211Z,37.06
2022-10-18T13:09:02.758Z,38.28
2022-10-18T13:11:40.552Z,38.48
2022-10-18T13:19:58.017Z,37.38
2022-10-18T13:22:35.702Z,37.66
2022-10-18T13:25:08.540Z,37.11
2022-10-18T13:27:36.653Z,36.68
2022-10-18T13:35:39.841Z,36.69
2022-10-18T13:38:08.862Z,37.14
2022-10-18T13:40:41.199Z,36.32
2022-10-18T13:43:11.872Z,36.39
2022-10-18T13:45:41.476Z,36.67
2022-10-18T13:48:10.969Z,36.11
2022-10-18T13:50:38.930Z,34.99
2022-10-18T13:53:17.362Z,35.58
2022-10-18T13:55:53.466Z,35.42
2022-10-18T13:58:23.775Z,35.07
2022-10-18T14:00:55.816Z,35.98
2022-10-18T14:03:55.090Z,35.05
2022-10-18T14:09:25.363Z,34.92
2022-10-18T14:15:03.689Z,36.56
2022-10-18T14:22:47.802Z,36.66
2022-10-18T14:25:21.376Z,37.01
2022-10-18T14:27:50.931Z,36.70
2022-10-18T14:30:22.845Z,36.68
2022-10-18T14:32:50.280Z,37.11
2022-10-18T14:35:32.021Z,37.91
2022-10-18T14:38:05.972Z,37.69
2022-10-18T14:40:33.288Z,36.15
2022-10-18T14:43:02.293Z,36.35
2022-10-18T14:45:31.274Z,35.81
2022-10-18T14:47:59.120Z,37.16
2022-10-18T14:50:30.415Z,36.33
2022-10-18T14:53:01.797Z,35.86
2022-10-18T14:55:33.434Z,36.48
2022-10-18T14:58:01.958Z,36.63
2022-10-18T15:00:30.727Z,36.30
2022-10-18T15:02:57.950Z,36.76
2022-10-18T15:05:29.744Z,36.43
2022-10-18T15:07:57.236Z,36.26
2022-10-18T15:13:16.906Z,36.61
2022-10-18T15:15:50.424Z,37.58
2022-10-18T15:18:19.643Z,37.39
2022-10-18T15:23:32.536Z,38.11
2022-10-18T15:26:02.015Z,37.47
2022-10-18T15:34:26.029Z,38.56
2022-10-18T15:36:58.684Z,39.38
2022-10-18T15:39:28.808Z,40.02
2022-10-18T15:41:55.803Z,41.02
2022-10-18T15:44:25.740Z,40.23
2022-10-18T15:46:54.417Z,40.33
2022-10-18T15:49:21.750Z,40.61
2022-10-18T15:51:48.974Z,40.48
2022-10-18T15:54:15.977Z,40.13
2022-10-18T15:56:46.295Z,40.11
2022-10-18T16:02:10.407Z,39.89
2022-10-18T16:04:44.917Z,40.04
2022-10-18T16:07:20.370Z,40.06
2022-10-18T16:15:36.387Z,40.58
2022-10-18T16:18:07.751Z,41.14
2022-10-18T16:23:30.808Z,40.95
2022-10-18T16:26:02.407Z,41.05
2022-10-18T16:28:31.614Z,40.99
2022-10-18T16:31:00.029Z,41.44
2022-10-18T16:36:22.202Z,41.76
2022-10-18T16:39:04.783Z,42.35
2022-10-18T16:41:52.267Z,42.63
2022-10-18T16:44:27.714Z,43.34
2022-10-18T16:46:56.257Z,45.40
2022-10-18T16:54:56.424Z,46.70
2022-10-18T17:00:11.299Z,45.85
2022-10-18T17:02:42.360Z,45.20
2022-10-18T17:05:13.187Z,44.98
2022-10-18T17:07:51.411Z,45.99
2022-10-18T17:10:20.993Z,46.46
2022-10-18T17:12:49.139Z,45.25
2022-10-18T17:15:35.357Z,44.42
2022-10-18T17:18:02.718Z,45.18
2022-10-18T17:20:30.783Z,44.23
2022-10-18T17:22:59.328Z,44.86
2022-10-18T17:30:51.431Z,44.67
2022-10-18T18:08:06.878Z,47.87
2022-10-18T18:17:10.128Z,55.29
2022-10-18T18:22:30.712Z,51.20
2022-10-18T18:25:03.735Z,50.17
2022-10-18T18:27:30.685Z,48.84
2022-10-18T18:29:59.698Z,46.82
2022-10-18T18:32:47.782Z,46.84
2022-10-18T18:35:18.866Z,46.53
2022-10-18T18:37:50.128Z,46.69
2022-10-18T18:40:20.074Z,47.21
2022-10-18T18:43:01.426Z,46.79
2022-10-18T18:45:34.482Z,46.29
2022-10-18T18:48:12.719Z,47.13
2022-10-18T18:50:52.597Z,47.01
2022-10-18T18:53:28.617Z,47.64
2022-10-18T18:56:01.507Z,48.09
2022-10-18T18:58:30.806Z,48.05
2022-10-18T19:01:02.721Z,48.38
2022-10-18T19:03:31.448Z,48.73
2022-10-18T19:06:02.269Z,48.78
2022-10-18T19:08:31.594Z,48.55
2022-10-18T19:11:02.503Z,48.10
2022-10-18T19:13:32.318Z,48.09
2022-10-18T19:25:28.465Z,49.78
2022-10-18T19:27:55.922Z,51.16
2022-10-18T19:35:51.532Z,51.08
2022-10-18T19:38:22.414Z,52.59
2022-10-18T19:40:58.206Z,51.49
2022-10-18T19:43:31.174Z,51.06
2022-10-18T19:45:59.401Z,52.38
2022-10-18T19:48:26.869Z,51.31
2022-10-18T19:50:58.536Z,52.39
2022-10-18T19:53:34.026Z,52.92
2022-10-18T19:58:54.532Z,52.12
2022-10-18T20:01:23.667Z,52.08
2022-10-18T20:03:50.743Z,52.51
2022-10-18T20:06:19.995Z,54.27
2022-10-18T20:08:47.534Z,53.70
2022-10-18T20:11:17.707Z,53.82
2022-10-18T20:13:51.460Z,53.48
2022-10-18T20:16:18.762Z,53.28
2022-10-18T20:18:50.409Z,52.47
2022-10-18T20:21:17.816Z,52.55
2022-10-18T20:23:45.281Z,52.72
2022-10-18T20:26:18.204Z,55.07
2022-10-18T20:28:50.161Z,54.23
2022-10-18T20:31:18.512Z,53.65
2022-10-18T20:33:47.849Z,53.40
2022-10-18T20:36:15.517Z,53.45
2022-10-18T20:38:44.926Z,53.62
2022-10-18T20:41:12.898Z,53.68
2022-10-18T20:43:39.937Z,54.35
2022-10-18T20:46:09.183Z,54.52
2022-10-18T20:48:36.927Z,55.75
2022-10-18T20:51:06.710Z,54.99
2022-10-18T20:53:33.998Z,55.25
2022-10-18T20:56:13.906Z,55.64
2022-10-18T20:58:41.493Z,57.20
2022-10-18T21:01:08.467Z,59.53
2022-10-18T21:03:35.343Z,57.45
2022-10-18T21:06:05.862Z,57.30
2022-10-18T21:08:33.196Z,57.45
2022-10-18T21:11:04.681Z,57.39
2022-10-18T21:13:31.759Z,58.43
2022-10-18T21:15:58.858Z,59.56
2022-10-18T21:18:28.415Z,59.75
2022-10-18T21:20:56.377Z,61.06
2022-10-18T21:23:23.144Z,60.53
2022-10-18T21:25:53.595Z,60.05
2022-10-18T21:28:23.507Z,60.99
2022-10-18T21:30:54.676Z,61.04
2022-10-18T21:33:21.719Z,60.56
2022-10-18T21:35:50.587Z,60.50
2022-10-18T21:38:19.208Z,60.69
2022-10-18T21:40:46.880Z,60.11
2022-10-18T21:43:15.895Z,60.64
2022-10-18T21:45:42.746Z,60.98
2022-10-18T21:48:11.904Z,60.06
2022-10-18T21:50:39.212Z,59.07
2022-10-18T21:53:06.603Z,59.16
2022-10-18T21:55:36.747Z,58.57
2022-10-18T21:58:04.951Z,58.85
2022-10-18T22:00:33.709Z,57.70
2022-10-18T22:03:01.503Z,57.30
2022-10-18T22:05:30.615Z,56.57
2022-10-18T22:08:00.678Z,56.23
2022-10-18T22:10:28.082Z,56.89
2022-10-18T22:12:55.375Z,56.77
2022-10-18T22:15:22.565Z,56.61
2022-10-18T22:17:51.555Z,56.57
2022-10-18T22:20:18.537Z,56.41
2022-10-18T22:22:45.344Z,55.60
2022-10-18T22:25:24.683Z,55.87
2022-10-18T22:27:54.611Z,57.85
2022-10-18T22:30:21.386Z,59.97
2022-10-18T22:32:49.529Z,60.91
2022-10-18T22:35:16.548Z,59.06
2022-10-18T22:37:49.008Z,57.59
2022-10-18T22:40:22.382Z,57.51
2022-10-18T22:42:49.368Z,58.15
2022-10-18T22:45:17.555Z,58.42
2022-10-18T22:47:46.237Z,58.97
2022-10-18T22:50:13.160Z,58.76
2022-10-18T22:52:40.727Z,57.61
2022-10-18T22:55:09.105Z,56.59
2022-10-18T22:57:45.715Z,56.81
2022-10-18T23:00:12.641Z,57.20
2022-10-18T23:02:39.581Z,58.75
2022-10-18T23:05:17.122Z,59.48
2022-10-18T23:07:44.580Z,58.50
2022-10-18T23:10:11.592Z,58.41
2022-10-18T23:12:39.726Z,57.01
2022-10-18T23:15:06.567Z,58.00
2022-10-18T23:17:37.472Z,57.39
2022-10-18T23:20:04.796Z,57.19
2022-10-18T23:22:34.576Z,57.70
2022-10-18T23:25:04.083Z,58.78
2022-10-18T23:27:32.951Z,59.68
2022-10-18T23:30:15.374Z,60.73
2022-10-18T23:32:42.253Z,59.88
2022-10-18T23:35:09.074Z,61.76
2022-10-18T23:37:54.573Z,60.80
2022-10-18T23:40:23.470Z,60.03
2022-10-18T23:42:50.384Z,58.10
2022-10-18T23:45:17.430Z,58.15
2022-10-18T23:47:49.500Z,58.40
2022-10-18T23:50:16.556Z,59.04
2022-10-18T23:52:44.253Z,60.40
2022-10-18T23:55:12.757Z,59.06
